Paramount Helsinki — 2CWB3 — position and weather

sailwx.info

Track history (hours):
 
Tides and Currents Weather Stations Pressure Air Temp Water Temp Dewpoint Dewpoint Depression Visibility Wind Speed Wind Dir Waves Ship Positions

Paramount Helsinki

Last reported at 2018-Apr-21 22:27 UTC. Time now 2018-Apr-21 22:39 UTC.
Position N 51°57' E 004°09'.

Length 250 m; draft 12.6 m.

Type: Tanker. MMSI: 235076275.

Date/timePositionNaut miles runAvg speedWind from/ knotsBaromVisibWave heightAir tempDewpointWater temp
2018-Apr-21 22:27N 51°57' E 004°09'0 0.0
2018-Apr-21 22:00N 51°57' E 004°09'0 0.0
2018-Apr-21 21:30N 51°57' E 004°09'0 0.0
2018-Apr-21 21:00N 51°57' E 004°09'0 0.0
2018-Apr-21 20:30N 51°57' E 004°09'0 0.1
2018-Apr-21 20:00N 51°57' E 004°09'0 0.0
2018-Apr-21 19:30N 51°57' E 004°09'0 0.0
2018-Apr-21 19:00N 51°57' E 004°09'0 0.0
2018-Apr-21 18:30N 51°57' E 004°09'0 0.0
2018-Apr-21 17:57N 51°57' E 004°09'0 0.1
2018-Apr-21 17:27N 51°57' E 004°09'0 0.0
2018-Apr-21 17:00N 51°57' E 004°09'0 0.0
2018-Apr-21 16:30N 51°57' E 004°09'0 0.0
2018-Apr-21 16:00N 51°57' E 004°09'6 2.6
2018-Apr-21 13:49N 51°60' E 004°01'3 9.9
2018-Apr-21 13:30N 51°60' E 003°56'5 9.9
2018-Apr-21 13:00N 51°59' E 003°48'4 7.8
2018-Apr-21 12:30N 51°58' E 003°42'4 8.6
2018-Apr-21 12:00N 51°57' E 003°35'4 7.5
2018-Apr-21 11:30N 51°56' E 003°29'5 9.6
2018-Apr-21 11:00N 51°55' E 003°22'5 9.1
2018-Apr-21 10:30N 51°54' E 003°14'510.9
2018-Apr-21 10:00N 51°54' E 003°06'611.3
2018-Apr-21 09:30N 51°53' E 002°57'611.8
2018-Apr-21 09:00N 51°52' E 002°47'611.1
2018-Apr-21 08:30N 51°56' E 002°40'611.3
2018-Apr-21 08:00N 52°01' E 002°37'611.6
2018-Apr-21 07:30N 52°07' E 002°38'611.3
2018-Apr-21 07:00N 52°12' E 002°39'610.9
2018-Apr-21 06:30N 52°18' E 002°42'511.0
2018-Apr-21 06:00N 52°22' E 002°46'611.1
2018-Apr-21 05:30N 52°27' E 002°51'611.3
2018-Apr-21 05:00N 52°32' E 002°55'611.6
2018-Apr-21 04:30N 52°37' E 002°60'612.0
2018-Apr-21 03:59N 52°43' E 003°05'612.6
2018-Apr-21 03:30N 52°48' E 003°09'713.1
2018-Apr-21 02:56N 52°55' E 003°15'613.4
2018-Apr-21 02:29N 53°01' E 003°18'713.6
2018-Apr-21 02:00N 53°07' E 003°21'713.7
2018-Apr-21 01:28N 53°14' E 003°25'613.9
2018-Apr-21 01:00N 53°20' E 003°28'913.7
2018-Apr-21 00:19N 53°29' E 003°33'8311.6
2018-Apr-20 17:11N 54°46' E 004°23'18512.8
2018-Apr-20 02:45N 57°52' E 004°12'613.1
2018-Apr-20 02:15N 57°58' E 004°10'313.2
2018-Apr-20 02:00N 58°01' E 004°09'713.1
2018-Apr-20 01:29N 58°08' E 004°08'613.1
2018-Apr-20 01:00N 58°14' E 004°08'712.8
2018-Apr-20 00:29N 58°21' E 004°07'812.3
2018-Apr-19 23:50N 58°29' E 004°05'12910.8
2018-Apr-19 11:56N 60°37' E 004°21'510.5
2018-Apr-19 11:30N 60°41' E 004°28'4 8.3
2018-Apr-19 10:58N 60°44' E 004°32'3 7.4
2018-Apr-19 10:30N 60°45' E 004°39'5 9.8
2018-Apr-19 10:00N 60°42' E 004°48'5 9.8
2018-Apr-19 09:30N 60°38' E 004°52'1 2.0
2018-Apr-19 09:00N 60°37' E 004°52'0 0.0
2018-Apr-19 08:30N 60°37' E 004°52'0 0.0
2018-Apr-19 08:00N 60°37' E 004°52'0 0.0
2018-Apr-19 07:30N 60°37' E 004°52'0 0.0
2018-Apr-19 07:00N 60°37' E 004°52'0 0.0
2018-Apr-19 06:30N 60°37' E 004°52'0 0.0
2018-Apr-19 06:00N 60°37' E 004°52'0 0.0
2018-Apr-19 05:30N 60°37' E 004°52'0 0.0
2018-Apr-19 05:00N 60°37' E 004°52'0 0.0
2018-Apr-19 04:30N 60°37' E 004°52'0 0.0
2018-Apr-19 04:00N 60°37' E 004°52'0 0.0
2018-Apr-19 03:30N 60°37' E 004°52'0 0.0
2018-Apr-19 03:00N 60°37' E 004°52'0 0.0
2018-Apr-19 02:30N 60°37' E 004°52'0 0.0
2018-Apr-19 02:00N 60°37' E 004°52'0 0.0
2018-Apr-19 01:30N 60°37' E 004°52'0 0.0
2018-Apr-19 01:00N 60°37' E 004°52'0 0.0
2018-Apr-19 00:30N 60°37' E 004°52'0 0.0
2018-Apr-19 00:00N 60°37' E 004°52'0 0.0
2018-Apr-18 23:30N 60°37' E 004°52'0 0.1
2018-Apr-18 23:00N 60°37' E 004°52'0 0.0
2018-Apr-18 22:30N 60°37' E 004°52'0 0.0
2018-Apr-18 22:00N 60°37' E 004°52'0 0.0
2018-Apr-18 21:30N 60°37' E 004°52'0 0.0
2018-Apr-18 21:00N 60°37' E 004°52'0 0.0
2018-Apr-18 20:30N 60°37' E 004°52'0 0.0
2018-Apr-18 20:00N 60°37' E 004°52'0 0.0
2018-Apr-18 19:30N 60°37' E 004°52'0 0.0
2018-Apr-18 19:00N 60°37' E 004°52'0 0.0
2018-Apr-18 18:30N 60°37' E 004°52'0 0.0
2018-Apr-18 18:00N 60°37' E 004°52'0 0.0
2018-Apr-18 17:30N 60°37' E 004°52'0 0.0
2018-Apr-18 17:00N 60°37' E 004°52'0 0.0
2018-Apr-18 16:30N 60°37' E 004°52'0 0.0
2018-Apr-18 16:00N 60°37' E 004°52'0 0.0
2018-Apr-18 15:30N 60°37' E 004°52'0 0.0
2018-Apr-18 15:00N 60°37' E 004°52'0 0.0
2018-Apr-18 14:30N 60°37' E 004°52'0 0.0
2018-Apr-18 14:00N 60°37' E 004°52'0 0.0
2018-Apr-18 13:30N 60°37' E 004°52'0 0.0
2018-Apr-18 13:00N 60°37' E 004°52'0 0.0
2018-Apr-18 12:30N 60°37' E 004°52'0 0.0
2018-Apr-18 12:00N 60°37' E 004°52'0 0.0
2018-Apr-18 11:30N 60°37' E 004°52'0 0.0
2018-Apr-18 11:00N 60°37' E 004°52'0 0.0
2018-Apr-18 10:30N 60°37' E 004°52'0 0.0
2018-Apr-18 10:00N 60°37' E 004°52'0 0.0
2018-Apr-18 09:30N 60°37' E 004°52'0 0.0
2018-Apr-18 08:59N 60°37' E 004°52'1 1.6
2018-Apr-18 08:30N 60°38' E 004°52'4 7.3
2018-Apr-18 08:00N 60°41' E 004°49'5 9.5
2018-Apr-18 07:30N 60°45' E 004°42'511.1
2018-Apr-18 07:00N 60°46' E 004°31'3 4.9
2018-Apr-18 06:29N 60°46' E 004°26'3 5.9
2018-Apr-18 06:00N 60°46' E 004°20'3 1.2
2018-Apr-18 03:21N 60°49' E 004°17'0 0.1
2018-Apr-18 00:22N 60°49' E 004°17'1 2.4
2018-Apr-18 00:00N 60°49' E 004°18'1 2.4
2018-Apr-17 23:30N 60°48' E 004°19'1 2.6
2018-Apr-17 23:00N 60°46' E 004°20'1 2.8
2018-Apr-17 22:30N 60°45' E 004°21'2 4.5
2018-Apr-17 21:59N 60°44' E 004°25'4 7.4
2018-Apr-17 21:30N 60°40' E 004°22'12 9.9
2018-Apr-17 20:20N 60°29' E 004°17'3 8.0
2018-Apr-17 20:00N 60°26' E 004°16'3 5.1
2018-Apr-17 19:31N 60°24' E 004°14'4 8.4
2018-Apr-17 19:00N 60°20' E 004°13'89 6.7
2018-Apr-17 05:49N 58°51' E 004°26'713.3
2018-Apr-17 05:17N 58°46' E 004°35'513.2
2018-Apr-17 04:54N 58°43' E 004°42'512.9
2018-Apr-17 04:30N 58°39' E 004°49'613.0
2018-Apr-17 04:00N 58°35' E 004°58'713.6
2018-Apr-17 03:30N 58°30' E 005°07'612.8
2018-Apr-17 03:00N 58°25' E 005°15'612.1
2018-Apr-17 02:30N 58°21' E 005°24'713.6
2018-Apr-17 02:00N 58°17' E 005°34'613.1
2018-Apr-17 01:30N 58°13' E 005°43'612.9
2018-Apr-17 01:00N 58°08' E 005°52'612.8
2018-Apr-17 00:31N 58°04' E 006°02'612.3
2018-Apr-17 00:00N 58°00' E 006°10'611.2
2018-Apr-16 23:30N 57°56' E 006°18'611.2
2018-Apr-16 23:00N 57°52' E 006°26'611.5
2018-Apr-16 22:30N 57°48' E 006°33'611.4
2018-Apr-16 22:00N 57°47' E 006°44'713.2
2018-Apr-16 21:31N 57°47' E 006°56'713.8
2018-Apr-16 21:00N 57°47' E 007°09'713.9
2018-Apr-16 20:30N 57°46' E 007°22'714.3
2018-Apr-16 20:00N 57°46' E 007°36'713.8
2018-Apr-16 19:30N 57°46' E 007°48'713.0
2018-Apr-16 18:58N 57°48' E 008°01'612.2
2018-Apr-16 18:30N 57°48' E 008°12'4413.0
2018-Apr-16 15:07N 57°51' E 009°34'212.9
2018-Apr-16 15:00N 57°50' E 009°37'612.9
2018-Apr-16 14:30N 57°50' E 009°49'713.0
2018-Apr-16 14:00N 57°50' E 010°01'612.8
2018-Apr-16 13:29N 57°51' E 010°13'612.8
2018-Apr-16 13:00N 57°50' E 010°25'612.8
2018-Apr-16 12:30N 57°50' E 010°37'612.3
2018-Apr-16 12:00N 57°51' E 010°49'612.5
2018-Apr-16 11:30N 57°47' E 010°58'612.5
2018-Apr-16 11:00N 57°44' E 011°08'612.8
2018-Apr-16 10:30N 57°40' E 011°18'613.0
2018-Apr-16 10:00N 57°37' E 011°28'611.8
2018-Apr-16 09:30N 57°35' E 011°38'1 2.5
2018-Apr-16 09:00N 57°34' E 011°41'0 0.2
2018-Apr-16 08:30N 57°34' E 011°40'0 0.1
2018-Apr-16 08:00N 57°34' E 011°40'0 0.0
2018-Apr-16 07:30N 57°34' E 011°40'0 0.0
2018-Apr-16 07:00N 57°34' E 011°40'0 0.0
2018-Apr-16 06:30N 57°34' E 011°40'0 0.0
2018-Apr-16 06:00N 57°34' E 011°40'0 0.1
2018-Apr-16 05:30N 57°34' E 011°40'0 0.1
2018-Apr-16 05:00N 57°34' E 011°40'0 0.2
2018-Apr-16 04:30N 57°34' E 011°40'0 0.1
2018-Apr-16 04:00N 57°34' E 011°40'0 0.0
2018-Apr-16 03:30N 57°34' E 011°40'0 0.1
2018-Apr-16 03:00N 57°34' E 011°40'0 0.0
2018-Apr-16 02:30N 57°34' E 011°40'0 0.0
2018-Apr-16 02:00N 57°34' E 011°40'0 0.1
2018-Apr-16 01:30N 57°34' E 011°40'0 0.1
2018-Apr-16 01:00N 57°34' E 011°40'0 0.0
2018-Apr-16 00:30N 57°34' E 011°40'0 0.0
2018-Apr-16 00:00N 57°34' E 011°40'0 0.1
2018-Apr-15 23:30N 57°34' E 011°40'0 0.0
2018-Apr-15 23:00N 57°34' E 011°40'0 0.1
2018-Apr-15 22:30N 57°34' E 011°40'0 0.1
2018-Apr-15 22:00N 57°34' E 011°40'0 0.1
2018-Apr-15 21:30N 57°34' E 011°40'0 0.0
2018-Apr-15 21:00N 57°34' E 011°41'0 0.0
2018-Apr-15 20:30N 57°34' E 011°41'0 0.1
2018-Apr-15 20:00N 57°34' E 011°41'0 0.0
2018-Apr-15 19:30N 57°34' E 011°41'0 0.1
2018-Apr-15 19:00N 57°34' E 011°40'0 0.1
2018-Apr-15 18:30N 57°34' E 011°40'0 0.1
2018-Apr-15 18:00N 57°34' E 011°40'0 0.0
2018-Apr-15 17:30N 57°34' E 011°40'0 0.0
2018-Apr-15 17:00N 57°34' E 011°40'0 0.0
2018-Apr-15 16:30N 57°34' E 011°40'0 0.0
2018-Apr-15 16:00N 57°34' E 011°40'0 0.0
2018-Apr-15 15:30N 57°34' E 011°40'0 0.0
2018-Apr-15 15:00N 57°34' E 011°40'0 0.0
2018-Apr-15 14:30N 57°34' E 011°40'0 0.1
2018-Apr-15 14:00N 57°34' E 011°40'0 0.1
2018-Apr-15 13:30N 57°34' E 011°40'0 0.0
2018-Apr-15 13:00N 57°34' E 011°40'0 0.1
2018-Apr-15 12:30N 57°34' E 011°40'0 0.0
2018-Apr-15 12:00N 57°34' E 011°40'0 0.1
2018-Apr-15 11:30N 57°34' E 011°40'0 0.1
2018-Apr-15 11:00N 57°34' E 011°40'0 0.0
2018-Apr-15 10:30N 57°34' E 011°40'0 0.0
2018-Apr-15 10:00N 57°34' E 011°40'0 0.0
2018-Apr-15 09:30N 57°34' E 011°40'0 0.0
2018-Apr-15 09:00N 57°34' E 011°40'0 0.1
2018-Apr-15 08:30N 57°34' E 011°40'0 0.1
2018-Apr-15 08:00N 57°34' E 011°40'0 0.1
2018-Apr-15 07:30N 57°34' E 011°40'0 0.1
2018-Apr-15 07:00N 57°34' E 011°41'0 0.1
2018-Apr-15 06:30N 57°34' E 011°41'0 0.0
2018-Apr-15 06:00N 57°34' E 011°41'0 0.1
2018-Apr-15 05:30N 57°34' E 011°41'0 0.1
2018-Apr-15 05:00N 57°34' E 011°40'0 0.1
2018-Apr-15 04:30N 57°34' E 011°40'0 0.1
2018-Apr-15 04:00N 57°34' E 011°40'0 0.1
2018-Apr-15 03:30N 57°34' E 011°40'0 0.0
2018-Apr-15 03:00N 57°34' E 011°40'0 0.0
2018-Apr-15 02:30N 57°34' E 011°40'0 0.0
2018-Apr-15 02:00N 57°34' E 011°40'0 0.0
2018-Apr-15 01:30N 57°34' E 011°40'0 0.0
2018-Apr-15 01:00N 57°34' E 011°40'0 0.0
2018-Apr-15 00:30N 57°34' E 011°40'0 0.0
2018-Apr-15 00:00N 57°34' E 011°40'0 0.0
2018-Apr-14 23:30N 57°34' E 011°40'0 0.0
2018-Apr-14 23:00N 57°34' E 011°40'0 0.1
2018-Apr-14 22:30N 57°34' E 011°40'0 0.1
2018-Apr-14 22:00N 57°34' E 011°40'0 0.1
2018-Apr-14 21:30N 57°34' E 011°40'0 0.0
2018-Apr-14 21:00N 57°34' E 011°41'0 0.1
2018-Apr-14 20:30N 57°34' E 011°41'0 0.1
2018-Apr-14 20:00N 57°34' E 011°41'0 0.0
2018-Apr-14 19:30N 57°34' E 011°41'0 0.2
2018-Apr-14 19:00N 57°34' E 011°40'0 0.1
2018-Apr-14 18:30N 57°34' E 011°41'0 0.1
2018-Apr-14 18:00N 57°34' E 011°41'0 0.3
2018-Apr-14 17:30N 57°34' E 011°41'0 0.3
2018-Apr-14 17:00N 57°34' E 011°40'0 0.1
2018-Apr-14 16:30N 57°34' E 011°40'0 0.0
2018-Apr-14 16:00N 57°34' E 011°40'0 0.1
2018-Apr-14 15:30N 57°34' E 011°40'0 0.1
2018-Apr-14 15:00N 57°34' E 011°40'0 0.2
2018-Apr-14 14:30N 57°34' E 011°40'0 0.1
2018-Apr-14 14:00N 57°34' E 011°40'0 0.0
2018-Apr-14 13:30N 57°34' E 011°40'0 0.0
2018-Apr-14 13:00N 57°34' E 011°40'0 0.1
2018-Apr-14 12:30N 57°34' E 011°40'0 0.1
2018-Apr-14 12:00N 57°34' E 011°40'0 0.1
2018-Apr-14 11:30N 57°34' E 011°40'0 0.0
2018-Apr-14 11:00N 57°34' E 011°40'0 0.0
2018-Apr-14 10:30N 57°34' E 011°40'0 0.0
2018-Apr-14 10:00N 57°34' E 011°40'0 0.0
2018-Apr-14 09:30N 57°34' E 011°40'0 0.0
2018-Apr-14 09:00N 57°34' E 011°40'0 0.0
2018-Apr-14 08:30N 57°34' E 011°40'0 0.0
2018-Apr-14 08:00N 57°34' E 011°40'0 0.0
2018-Apr-14 07:30N 57°34' E 011°40'0 0.0
2018-Apr-14 07:00N 57°34' E 011°40'0 0.0
2018-Apr-14 06:30N 57°34' E 011°40'0 0.0
2018-Apr-14 06:00N 57°34' E 011°40'0 0.0
2018-Apr-14 05:30N 57°34' E 011°40'0 0.1
2018-Apr-14 05:00N 57°34' E 011°40'0 0.1
2018-Apr-14 04:30N 57°34' E 011°40'0 0.1
2018-Apr-14 04:00N 57°34' E 011°40'0 0.0
2018-Apr-14 03:30N 57°34' E 011°40'0 0.1
2018-Apr-14 03:00N 57°34' E 011°40'0 0.1
2018-Apr-14 02:30N 57°34' E 011°40'0 0.1
2018-Apr-14 02:00N 57°34' E 011°40'0 0.1
2018-Apr-14 01:30N 57°34' E 011°40'0 0.1
2018-Apr-14 01:00N 57°34' E 011°40'0 0.0
2018-Apr-14 00:30N 57°34' E 011°40'0 0.1
2018-Apr-14 00:00N 57°34' E 011°40'0 0.0
2018-Apr-13 23:30N 57°34' E 011°40'0 0.0
2018-Apr-13 22:57N 57°34' E 011°40'0 0.0
2018-Apr-13 22:30N 57°34' E 011°40'0 0.0
2018-Apr-13 22:00N 57°34' E 011°40'0 0.1
2018-Apr-13 21:30N 57°34' E 011°40'0 0.0
2018-Apr-13 21:00N 57°34' E 011°40'0 0.0
2018-Apr-13 20:30N 57°34' E 011°40'0 0.0
2018-Apr-13 19:57N 57°34' E 011°40'0 0.0
2018-Apr-13 19:30N 57°34' E 011°40'0 0.0
2018-Apr-13 19:00N 57°34' E 011°40'0 0.0
2018-Apr-13 18:30N 57°34' E 011°40'0 0.0
2018-Apr-13 18:00N 57°34' E 011°40'0 0.0
2018-Apr-13 17:30N 57°34' E 011°40'0 0.0
2018-Apr-13 17:00N 57°34' E 011°40'0 0.0
2018-Apr-13 16:30N 57°34' E 011°40'0 0.1
2018-Apr-13 16:00N 57°34' E 011°40'0 0.0
2018-Apr-13 15:30N 57°34' E 011°40'0 0.0
2018-Apr-13 15:00N 57°34' E 011°40'0 0.0
2018-Apr-13 14:30N 57°34' E 011°40'0 0.0
2018-Apr-13 14:00N 57°34' E 011°40'0 0.0
2018-Apr-13 13:30N 57°34' E 011°40'0 0.1
2018-Apr-13 13:00N 57°34' E 011°40'0 0.0
2018-Apr-13 12:30N 57°34' E 011°40'0 0.0
2018-Apr-13 12:00N 57°34' E 011°40'0 0.0
2018-Apr-13 11:30N 57°34' E 011°40'0 0.0
2018-Apr-13 10:57N 57°34' E 011°40'0 0.0
2018-Apr-13 10:30N 57°34' E 011°40'0 0.0
2018-Apr-13 10:00N 57°34' E 011°40'0 0.0
2018-Apr-13 09:30N 57°34' E 011°40'0 0.0
2018-Apr-13 08:57N 57°34' E 011°40'0 0.0
2018-Apr-13 08:30N 57°34' E 011°40'0 0.0
2018-Apr-13 08:00N 57°34' E 011°40'0 0.0
2018-Apr-13 07:30N 57°34' E 011°40'0 0.1
2018-Apr-13 07:00N 57°34' E 011°40'0 0.0
2018-Apr-13 06:30N 57°34' E 011°40'0 0.0
2018-Apr-13 06:00N 57°34' E 011°40'0 0.0
2018-Apr-13 05:30N 57°34' E 011°40'0 0.0
2018-Apr-13 05:00N 57°34' E 011°40'0 0.0
2018-Apr-13 04:30N 57°34' E 011°40'0 0.1
2018-Apr-13 04:00N 57°34' E 011°40'0 0.1
2018-Apr-13 03:30N 57°34' E 011°40'0 0.0
2018-Apr-13 03:00N 57°34' E 011°40'0 0.0
2018-Apr-13 02:30N 57°34' E 011°40'0 0.1
2018-Apr-13 02:00N 57°34' E 011°40'0 0.0
2018-Apr-13 01:30N 57°34' E 011°40'0 0.0
2018-Apr-13 01:00N 57°34' E 011°40'0 0.0
2018-Apr-13 00:30N 57°34' E 011°40'0 0.0
2018-Apr-13 00:00N 57°34' E 011°40'0 0.0
2018-Apr-12 23:30N 57°34' E 011°40'0 0.0
2018-Apr-12 23:00N 57°34' E 011°40'0 0.0
2018-Apr-12 22:30N 57°34' E 011°40'0 0.0
2018-Apr-12 22:00N 57°34' E 011°40'0 0.0
2018-Apr-12 21:30N 57°34' E 011°40'0 0.0
2018-Apr-12 21:00N 57°34' E 011°40'0 0.0
2018-Apr-12 20:30N 57°34' E 011°40'0 0.0
2018-Apr-12 20:00N 57°34' E 011°40'0 0.0
2018-Apr-12 19:30N 57°34' E 011°40'0 0.0
2018-Apr-12 19:00N 57°34' E 011°40'0 0.0
2018-Apr-12 18:30N 57°34' E 011°40'0 0.0
2018-Apr-12 18:00N 57°34' E 011°40'0 0.0
2018-Apr-12 17:30N 57°34' E 011°40'0 0.0
2018-Apr-12 17:00N 57°34' E 011°40'0 0.0
2018-Apr-12 16:30N 57°34' E 011°40'0 0.0
2018-Apr-12 16:00N 57°34' E 011°40'0 0.0
2018-Apr-12 15:30N 57°34' E 011°40'0 0.0
2018-Apr-12 15:00N 57°34' E 011°40'0 0.0
2018-Apr-12 14:30N 57°34' E 011°40'0 0.0
2018-Apr-12 14:00N 57°34' E 011°40'0 0.0
2018-Apr-12 13:30N 57°34' E 011°40'0 0.1
2018-Apr-12 13:00N 57°34' E 011°40'0 0.0
2018-Apr-12 12:30N 57°34' E 011°40'0 0.0
2018-Apr-12 12:00N 57°34' E 011°40'0 0.0
2018-Apr-12 11:30N 57°34' E 011°40'0 0.1
2018-Apr-12 11:00N 57°34' E 011°40'0 0.0
2018-Apr-12 10:30N 57°34' E 011°40'0 0.0
2018-Apr-12 10:00N 57°34' E 011°40'0 0.0
2018-Apr-12 09:30N 57°34' E 011°40'0 0.0
2018-Apr-12 09:00N 57°34' E 011°40'0 0.0
2018-Apr-12 08:30N 57°34' E 011°40'0 0.0
2018-Apr-12 08:00N 57°34' E 011°40'0 0.0
2018-Apr-12 07:30N 57°34' E 011°40'0 0.0
2018-Apr-12 07:00N 57°34' E 011°40'0 0.1
2018-Apr-12 06:30N 57°34' E 011°40'0 0.0
2018-Apr-12 06:00N 57°34' E 011°40'0 0.0
2018-Apr-12 05:30N 57°34' E 011°40'0 0.0
2018-Apr-12 05:00N 57°34' E 011°40'0 0.0
2018-Apr-12 04:30N 57°34' E 011°40'0 0.0
2018-Apr-12 04:00N 57°34' E 011°40'0 0.0
2018-Apr-12 03:30N 57°34' E 011°40'0 0.0
2018-Apr-12 03:00N 57°34' E 011°40'0 0.0
2018-Apr-12 02:30N 57°34' E 011°40'0 0.1
2018-Apr-12 02:00N 57°34' E 011°40'0 0.1
2018-Apr-12 01:30N 57°34' E 011°40'0 0.0
2018-Apr-12 01:00N 57°34' E 011°40'0 0.0
2018-Apr-12 00:30N 57°34' E 011°40'0 0.0
2018-Apr-12 00:00N 57°34' E 011°40'0 0.0
2018-Apr-11 23:30N 57°34' E 011°40'0 0.0
2018-Apr-11 23:00N 57°34' E 011°40'0 0.0
2018-Apr-11 22:30N 57°34' E 011°40'  
Track history (hours):
 
Tides and Currents Weather Stations Pressure Air Temp Water Temp Dewpoint Dewpoint Depression Visibility Wind Speed Wind Dir Waves Ship Positions

Paramount Helsinki

Last reported at 2018-Apr-21 22:27 UTC. Time now 2018-Apr-21 22:39 UTC.
Position N 51°57' E 004°09'.

Length 250 m; draft 12.6 m.

Type: Tanker. MMSI: 235076275.

Date/timePositionNaut miles runAvg speedWind from/ knotsBaromVisibWave heightAir tempDewpointWater temp
2018-Apr-21 22:27N 51°57' E 004°09'0 0.0
2018-Apr-21 22:00N 51°57' E 004°09'0 0.0
2018-Apr-21 21:30N 51°57' E 004°09'0 0.0
2018-Apr-21 21:00N 51°57' E 004°09'0 0.0
2018-Apr-21 20:30N 51°57' E 004°09'0 0.1
2018-Apr-21 20:00N 51°57' E 004°09'0 0.0
2018-Apr-21 19:30N 51°57' E 004°09'0 0.0
2018-Apr-21 19:00N 51°57' E 004°09'0 0.0
2018-Apr-21 18:30N 51°57' E 004°09'0 0.0
2018-Apr-21 17:57N 51°57' E 004°09'0 0.1
2018-Apr-21 17:27N 51°57' E 004°09'0 0.0
2018-Apr-21 17:00N 51°57' E 004°09'0 0.0
2018-Apr-21 16:30N 51°57' E 004°09'0 0.0
2018-Apr-21 16:00N 51°57' E 004°09'6 2.6
2018-Apr-21 13:49N 51°60' E 004°01'3 9.9
2018-Apr-21 13:30N 51°60' E 003°56'5 9.9
2018-Apr-21 13:00N 51°59' E 003°48'4 7.8
2018-Apr-21 12:30N 51°58' E 003°42'4 8.6
2018-Apr-21 12:00N 51°57' E 003°35'4 7.5
2018-Apr-21 11:30N 51°56' E 003°29'5 9.6
2018-Apr-21 11:00N 51°55' E 003°22'5 9.1
2018-Apr-21 10:30N 51°54' E 003°14'510.9
2018-Apr-21 10:00N 51°54' E 003°06'611.3
2018-Apr-21 09:30N 51°53' E 002°57'611.8
2018-Apr-21 09:00N 51°52' E 002°47'611.1
2018-Apr-21 08:30N 51°56' E 002°40'611.3
2018-Apr-21 08:00N 52°01' E 002°37'611.6
2018-Apr-21 07:30N 52°07' E 002°38'611.3
2018-Apr-21 07:00N 52°12' E 002°39'610.9
2018-Apr-21 06:30N 52°18' E 002°42'511.0
2018-Apr-21 06:00N 52°22' E 002°46'611.1
2018-Apr-21 05:30N 52°27' E 002°51'611.3
2018-Apr-21 05:00N 52°32' E 002°55'611.6
2018-Apr-21 04:30N 52°37' E 002°60'612.0
2018-Apr-21 03:59N 52°43' E 003°05'612.6
2018-Apr-21 03:30N 52°48' E 003°09'713.1
2018-Apr-21 02:56N 52°55' E 003°15'613.4
2018-Apr-21 02:29N 53°01' E 003°18'713.6
2018-Apr-21 02:00N 53°07' E 003°21'713.7
2018-Apr-21 01:28N 53°14' E 003°25'613.9
2018-Apr-21 01:00N 53°20' E 003°28'913.7
2018-Apr-21 00:19N 53°29' E 003°33'8311.6
2018-Apr-20 17:11N 54°46' E 004°23'18512.8
2018-Apr-20 02:45N 57°52' E 004°12'613.1
2018-Apr-20 02:15N 57°58' E 004°10'313.2
2018-Apr-20 02:00N 58°01' E 004°09'713.1
2018-Apr-20 01:29N 58°08' E 004°08'613.1
2018-Apr-20 01:00N 58°14' E 004°08'712.8
2018-Apr-20 00:29N 58°21' E 004°07'812.3
2018-Apr-19 23:50N 58°29' E 004°05'12910.8
2018-Apr-19 11:56N 60°37' E 004°21'510.5
2018-Apr-19 11:30N 60°41' E 004°28'4 8.3
2018-Apr-19 10:58N 60°44' E 004°32'3 7.4
2018-Apr-19 10:30N 60°45' E 004°39'5 9.8
2018-Apr-19 10:00N 60°42' E 004°48'5 9.8
2018-Apr-19 09:30N 60°38' E 004°52'1 2.0
2018-Apr-19 09:00N 60°37' E 004°52'0 0.0
2018-Apr-19 08:30N 60°37' E 004°52'0 0.0
2018-Apr-19 08:00N 60°37' E 004°52'0 0.0
2018-Apr-19 07:30N 60°37' E 004°52'0 0.0
2018-Apr-19 07:00N 60°37' E 004°52'0 0.0
2018-Apr-19 06:30N 60°37' E 004°52'0 0.0
2018-Apr-19 06:00N 60°37' E 004°52'0 0.0
2018-Apr-19 05:30N 60°37' E 004°52'0 0.0
2018-Apr-19 05:00N 60°37' E 004°52'0 0.0
2018-Apr-19 04:30N 60°37' E 004°52'0 0.0
2018-Apr-19 04:00N 60°37' E 004°52'0 0.0
2018-Apr-19 03:30N 60°37' E 004°52'0 0.0
2018-Apr-19 03:00N 60°37' E 004°52'0 0.0
2018-Apr-19 02:30N 60°37' E 004°52'0 0.0
2018-Apr-19 02:00N 60°37' E 004°52'0 0.0
2018-Apr-19 01:30N 60°37' E 004°52'0 0.0
2018-Apr-19 01:00N 60°37' E 004°52'0 0.0
2018-Apr-19 00:30N 60°37' E 004°52'0 0.0
2018-Apr-19 00:00N 60°37' E 004°52'0 0.0
2018-Apr-18 23:30N 60°37' E 004°52'0 0.1
2018-Apr-18 23:00N 60°37' E 004°52'0 0.0
2018-Apr-18 22:30N 60°37' E 004°52'0 0.0
2018-Apr-18 22:00N 60°37' E 004°52'0 0.0
2018-Apr-18 21:30N 60°37' E 004°52'0 0.0
2018-Apr-18 21:00N 60°37' E 004°52'0 0.0
2018-Apr-18 20:30N 60°37' E 004°52'0 0.0
2018-Apr-18 20:00N 60°37' E 004°52'0 0.0
2018-Apr-18 19:30N 60°37' E 004°52'0 0.0
2018-Apr-18 19:00N 60°37' E 004°52'0 0.0
2018-Apr-18 18:30N 60°37' E 004°52'0 0.0
2018-Apr-18 18:00N 60°37' E 004°52'0 0.0
2018-Apr-18 17:30N 60°37' E 004°52'0 0.0
2018-Apr-18 17:00N 60°37' E 004°52'0 0.0
2018-Apr-18 16:30N 60°37' E 004°52'0 0.0
2018-Apr-18 16:00N 60°37' E 004°52'0 0.0
2018-Apr-18 15:30N 60°37' E 004°52'0 0.0
2018-Apr-18 15:00N 60°37' E 004°52'0 0.0
2018-Apr-18 14:30N 60°37' E 004°52'0 0.0
2018-Apr-18 14:00N 60°37' E 004°52'0 0.0
2018-Apr-18 13:30N 60°37' E 004°52'0 0.0
2018-Apr-18 13:00N 60°37' E 004°52'0 0.0
2018-Apr-18 12:30N 60°37' E 004°52'0 0.0
2018-Apr-18 12:00N 60°37' E 004°52'0 0.0
2018-Apr-18 11:30N 60°37' E 004°52'0 0.0
2018-Apr-18 11:00N 60°37' E 004°52'0 0.0
2018-Apr-18 10:30N 60°37' E 004°52'0 0.0
2018-Apr-18 10:00N 60°37' E 004°52'0 0.0
2018-Apr-18 09:30N 60°37' E 004°52'0 0.0
2018-Apr-18 08:59N 60°37' E 004°52'1 1.6
2018-Apr-18 08:30N 60°38' E 004°52'4 7.3
2018-Apr-18 08:00N 60°41' E 004°49'5 9.5
2018-Apr-18 07:30N 60°45' E 004°42'511.1
2018-Apr-18 07:00N 60°46' E 004°31'3 4.9
2018-Apr-18 06:29N 60°46' E 004°26'3 5.9
2018-Apr-18 06:00N 60°46' E 004°20'3 1.2
2018-Apr-18 03:21N 60°49' E 004°17'0 0.1
2018-Apr-18 00:22N 60°49' E 004°17'1 2.4
2018-Apr-18 00:00N 60°49' E 004°18'1 2.4
2018-Apr-17 23:30N 60°48' E 004°19'1 2.6
2018-Apr-17 23:00N 60°46' E 004°20'1 2.8
2018-Apr-17 22:30N 60°45' E 004°21'2 4.5
2018-Apr-17 21:59N 60°44' E 004°25'4 7.4
2018-Apr-17 21:30N 60°40' E 004°22'12 9.9
2018-Apr-17 20:20N 60°29' E 004°17'3 8.0
2018-Apr-17 20:00N 60°26' E 004°16'3 5.1
2018-Apr-17 19:31N 60°24' E 004°14'4 8.4
2018-Apr-17 19:00N 60°20' E 004°13'89 6.7
2018-Apr-17 05:49N 58°51' E 004°26'713.3
2018-Apr-17 05:17N 58°46' E 004°35'513.2
2018-Apr-17 04:54N 58°43' E 004°42'512.9
2018-Apr-17 04:30N 58°39' E 004°49'613.0
2018-Apr-17 04:00N 58°35' E 004°58'713.6
2018-Apr-17 03:30N 58°30' E 005°07'612.8
2018-Apr-17 03:00N 58°25' E 005°15'612.1
2018-Apr-17 02:30N 58°21' E 005°24'713.6
2018-Apr-17 02:00N 58°17' E 005°34'613.1
2018-Apr-17 01:30N 58°13' E 005°43'612.9
2018-Apr-17 01:00N 58°08' E 005°52'612.8
2018-Apr-17 00:31N 58°04' E 006°02'612.3
2018-Apr-17 00:00N 58°00' E 006°10'611.2
2018-Apr-16 23:30N 57°56' E 006°18'611.2
2018-Apr-16 23:00N 57°52' E 006°26'611.5
2018-Apr-16 22:30N 57°48' E 006°33'611.4
2018-Apr-16 22:00N 57°47' E 006°44'713.2
2018-Apr-16 21:31N 57°47' E 006°56'713.8
2018-Apr-16 21:00N 57°47' E 007°09'713.9
2018-Apr-16 20:30N 57°46' E 007°22'714.3
2018-Apr-16 20:00N 57°46' E 007°36'713.8
2018-Apr-16 19:30N 57°46' E 007°48'713.0
2018-Apr-16 18:58N 57°48' E 008°01'612.2
2018-Apr-16 18:30N 57°48' E 008°12'4413.0
2018-Apr-16 15:07N 57°51' E 009°34'212.9
2018-Apr-16 15:00N 57°50' E 009°37'612.9
2018-Apr-16 14:30N 57°50' E 009°49'713.0
2018-Apr-16 14:00N 57°50' E 010°01'612.8
2018-Apr-16 13:29N 57°51' E 010°13'612.8
2018-Apr-16 13:00N 57°50' E 010°25'612.8
2018-Apr-16 12:30N 57°50' E 010°37'612.3
2018-Apr-16 12:00N 57°51' E 010°49'612.5
2018-Apr-16 11:30N 57°47' E 010°58'612.5
2018-Apr-16 11:00N 57°44' E 011°08'612.8
2018-Apr-16 10:30N 57°40' E 011°18'613.0
2018-Apr-16 10:00N 57°37' E 011°28'611.8
2018-Apr-16 09:30N 57°35' E 011°38'1 2.5
2018-Apr-16 09:00N 57°34' E 011°41'0 0.2
2018-Apr-16 08:30N 57°34' E 011°40'0 0.1
2018-Apr-16 08:00N 57°34' E 011°40'0 0.0
2018-Apr-16 07:30N 57°34' E 011°40'0 0.0
2018-Apr-16 07:00N 57°34' E 011°40'0 0.0
2018-Apr-16 06:30N 57°34' E 011°40'0 0.0
2018-Apr-16 06:00N 57°34' E 011°40'0 0.1
2018-Apr-16 05:30N 57°34' E 011°40'0 0.1
2018-Apr-16 05:00N 57°34' E 011°40'0 0.2
2018-Apr-16 04:30N 57°34' E 011°40'0 0.1
2018-Apr-16 04:00N 57°34' E 011°40'0 0.0
2018-Apr-16 03:30N 57°34' E 011°40'0 0.1
2018-Apr-16 03:00N 57°34' E 011°40'0 0.0
2018-Apr-16 02:30N 57°34' E 011°40'0 0.0
2018-Apr-16 02:00N 57°34' E 011°40'0 0.1
2018-Apr-16 01:30N 57°34' E 011°40'0 0.1
2018-Apr-16 01:00N 57°34' E 011°40'0 0.0
2018-Apr-16 00:30N 57°34' E 011°40'0 0.0
2018-Apr-16 00:00N 57°34' E 011°40'0 0.1
2018-Apr-15 23:30N 57°34' E 011°40'0 0.0
2018-Apr-15 23:00N 57°34' E 011°40'0 0.1
2018-Apr-15 22:30N 57°34' E 011°40'0 0.1
2018-Apr-15 22:00N 57°34' E 011°40'0 0.1
2018-Apr-15 21:30N 57°34' E 011°40'0 0.0
2018-Apr-15 21:00N 57°34' E 011°41'0 0.0
2018-Apr-15 20:30N 57°34' E 011°41'0 0.1
2018-Apr-15 20:00N 57°34' E 011°41'0 0.0
2018-Apr-15 19:30N 57°34' E 011°41'0 0.1
2018-Apr-15 19:00N 57°34' E 011°40'0 0.1
2018-Apr-15 18:30N 57°34' E 011°40'0 0.1
2018-Apr-15 18:00N 57°34' E 011°40'0 0.0
2018-Apr-15 17:30N 57°34' E 011°40'0 0.0
2018-Apr-15 17:00N 57°34' E 011°40'0 0.0
2018-Apr-15 16:30N 57°34' E 011°40'0 0.0
2018-Apr-15 16:00N 57°34' E 011°40'0 0.0
2018-Apr-15 15:30N 57°34' E 011°40'0 0.0
2018-Apr-15 15:00N 57°34' E 011°40'0 0.0
2018-Apr-15 14:30N 57°34' E 011°40'0 0.1
2018-Apr-15 14:00N 57°34' E 011°40'0 0.1
2018-Apr-15 13:30N 57°34' E 011°40'0 0.0
2018-Apr-15 13:00N 57°34' E 011°40'0 0.1
2018-Apr-15 12:30N 57°34' E 011°40'0 0.0
2018-Apr-15 12:00N 57°34' E 011°40'0 0.1
2018-Apr-15 11:30N 57°34' E 011°40'0 0.1
2018-Apr-15 11:00N 57°34' E 011°40'0 0.0
2018-Apr-15 10:30N 57°34' E 011°40'0 0.0
2018-Apr-15 10:00N 57°34' E 011°40'0 0.0
2018-Apr-15 09:30N 57°34' E 011°40'0 0.0
2018-Apr-15 09:00N 57°34' E 011°40'0 0.1
2018-Apr-15 08:30N 57°34' E 011°40'0 0.1
2018-Apr-15 08:00N 57°34' E 011°40'0 0.1
2018-Apr-15 07:30N 57°34' E 011°40'0 0.1
2018-Apr-15 07:00N 57°34' E 011°41'0 0.1
2018-Apr-15 06:30N 57°34' E 011°41'0 0.0
2018-Apr-15 06:00N 57°34' E 011°41'0 0.1
2018-Apr-15 05:30N 57°34' E 011°41'0 0.1
2018-Apr-15 05:00N 57°34' E 011°40'0 0.1
2018-Apr-15 04:30N 57°34' E 011°40'0 0.1
2018-Apr-15 04:00N 57°34' E 011°40'0 0.1
2018-Apr-15 03:30N 57°34' E 011°40'0 0.0
2018-Apr-15 03:00N 57°34' E 011°40'0 0.0
2018-Apr-15 02:30N 57°34' E 011°40'0 0.0
2018-Apr-15 02:00N 57°34' E 011°40'0 0.0
2018-Apr-15 01:30N 57°34' E 011°40'0 0.0
2018-Apr-15 01:00N 57°34' E 011°40'0 0.0
2018-Apr-15 00:30N 57°34' E 011°40'0 0.0
2018-Apr-15 00:00N 57°34' E 011°40'0 0.0
2018-Apr-14 23:30N 57°34' E 011°40'0 0.0
2018-Apr-14 23:00N 57°34' E 011°40'0 0.1
2018-Apr-14 22:30N 57°34' E 011°40'0 0.1
2018-Apr-14 22:00N 57°34' E 011°40'0 0.1
2018-Apr-14 21:30N 57°34' E 011°40'0 0.0
2018-Apr-14 21:00N 57°34' E 011°41'0 0.1
2018-Apr-14 20:30N 57°34' E 011°41'0 0.1
2018-Apr-14 20:00N 57°34' E 011°41'0 0.0
2018-Apr-14 19:30N 57°34' E 011°41'0 0.2
2018-Apr-14 19:00N 57°34' E 011°40'0 0.1
2018-Apr-14 18:30N 57°34' E 011°41'0 0.1
2018-Apr-14 18:00N 57°34' E 011°41'0 0.3
2018-Apr-14 17:30N 57°34' E 011°41'0 0.3
2018-Apr-14 17:00N 57°34' E 011°40'0 0.1
2018-Apr-14 16:30N 57°34' E 011°40'0 0.0
2018-Apr-14 16:00N 57°34' E 011°40'0 0.1
2018-Apr-14 15:30N 57°34' E 011°40'0 0.1
2018-Apr-14 15:00N 57°34' E 011°40'0 0.2
2018-Apr-14 14:30N 57°34' E 011°40'0 0.1
2018-Apr-14 14:00N 57°34' E 011°40'0 0.0
2018-Apr-14 13:30N 57°34' E 011°40'0 0.0
2018-Apr-14 13:00N 57°34' E 011°40'0 0.1
2018-Apr-14 12:30N 57°34' E 011°40'0 0.1
2018-Apr-14 12:00N 57°34' E 011°40'0 0.1
2018-Apr-14 11:30N 57°34' E 011°40'0 0.0
2018-Apr-14 11:00N 57°34' E 011°40'0 0.0
2018-Apr-14 10:30N 57°34' E 011°40'0 0.0
2018-Apr-14 10:00N 57°34' E 011°40'0 0.0
2018-Apr-14 09:30N 57°34' E 011°40'0 0.0
2018-Apr-14 09:00N 57°34' E 011°40'0 0.0
2018-Apr-14 08:30N 57°34' E 011°40'0 0.0
2018-Apr-14 08:00N 57°34' E 011°40'0 0.0
2018-Apr-14 07:30N 57°34' E 011°40'0 0.0
2018-Apr-14 07:00N 57°34' E 011°40'0 0.0
2018-Apr-14 06:30N 57°34' E 011°40'0 0.0
2018-Apr-14 06:00N 57°34' E 011°40'0 0.0
2018-Apr-14 05:30N 57°34' E 011°40'0 0.1
2018-Apr-14 05:00N 57°34' E 011°40'0 0.1
2018-Apr-14 04:30N 57°34' E 011°40'0 0.1
2018-Apr-14 04:00N 57°34' E 011°40'0 0.0
2018-Apr-14 03:30N 57°34' E 011°40'0 0.1
2018-Apr-14 03:00N 57°34' E 011°40'0 0.1
2018-Apr-14 02:30N 57°34' E 011°40'0 0.1
2018-Apr-14 02:00N 57°34' E 011°40'0 0.1
2018-Apr-14 01:30N 57°34' E 011°40'0 0.1
2018-Apr-14 01:00N 57°34' E 011°40'0 0.0
2018-Apr-14 00:30N 57°34' E 011°40'0 0.1
2018-Apr-14 00:00N 57°34' E 011°40'0 0.0
2018-Apr-13 23:30N 57°34' E 011°40'0 0.0
2018-Apr-13 22:57N 57°34' E 011°40'0 0.0
2018-Apr-13 22:30N 57°34' E 011°40'0 0.0
2018-Apr-13 22:00N 57°34' E 011°40'0 0.1
2018-Apr-13 21:30N 57°34' E 011°40'0 0.0
2018-Apr-13 21:00N 57°34' E 011°40'0 0.0
2018-Apr-13 20:30N 57°34' E 011°40'0 0.0
2018-Apr-13 19:57N 57°34' E 011°40'0 0.0
2018-Apr-13 19:30N 57°34' E 011°40'0 0.0
2018-Apr-13 19:00N 57°34' E 011°40'0 0.0
2018-Apr-13 18:30N 57°34' E 011°40'0 0.0
2018-Apr-13 18:00N 57°34' E 011°40'0 0.0
2018-Apr-13 17:30N 57°34' E 011°40'0 0.0
2018-Apr-13 17:00N 57°34' E 011°40'0 0.0
2018-Apr-13 16:30N 57°34' E 011°40'0 0.1
2018-Apr-13 16:00N 57°34' E 011°40'0 0.0
2018-Apr-13 15:30N 57°34' E 011°40'0 0.0
2018-Apr-13 15:00N 57°34' E 011°40'0 0.0
2018-Apr-13 14:30N 57°34' E 011°40'0 0.0
2018-Apr-13 14:00N 57°34' E 011°40'0 0.0
2018-Apr-13 13:30N 57°34' E 011°40'0 0.1
2018-Apr-13 13:00N 57°34' E 011°40'0 0.0
2018-Apr-13 12:30N 57°34' E 011°40'0 0.0
2018-Apr-13 12:00N 57°34' E 011°40'0 0.0
2018-Apr-13 11:30N 57°34' E 011°40'0 0.0
2018-Apr-13 10:57N 57°34' E 011°40'0 0.0
2018-Apr-13 10:30N 57°34' E 011°40'0 0.0
2018-Apr-13 10:00N 57°34' E 011°40'0 0.0
2018-Apr-13 09:30N 57°34' E 011°40'0 0.0
2018-Apr-13 08:57N 57°34' E 011°40'0 0.0
2018-Apr-13 08:30N 57°34' E 011°40'0 0.0
2018-Apr-13 08:00N 57°34' E 011°40'0 0.0
2018-Apr-13 07:30N 57°34' E 011°40'0 0.1
2018-Apr-13 07:00N 57°34' E 011°40'0 0.0
2018-Apr-13 06:30N 57°34' E 011°40'0 0.0
2018-Apr-13 06:00N 57°34' E 011°40'0 0.0
2018-Apr-13 05:30N 57°34' E 011°40'0 0.0
2018-Apr-13 05:00N 57°34' E 011°40'0 0.0
2018-Apr-13 04:30N 57°34' E 011°40'0 0.1
2018-Apr-13 04:00N 57°34' E 011°40'0 0.1
2018-Apr-13 03:30N 57°34' E 011°40'0 0.0
2018-Apr-13 03:00N 57°34' E 011°40'0 0.0
2018-Apr-13 02:30N 57°34' E 011°40'0 0.1
2018-Apr-13 02:00N 57°34' E 011°40'0 0.0
2018-Apr-13 01:30N 57°34' E 011°40'0 0.0
2018-Apr-13 01:00N 57°34' E 011°40'0 0.0
2018-Apr-13 00:30N 57°34' E 011°40'0 0.0
2018-Apr-13 00:00N 57°34' E 011°40'0 0.0
2018-Apr-12 23:30N 57°34' E 011°40'0 0.0
2018-Apr-12 23:00N 57°34' E 011°40'0 0.0
2018-Apr-12 22:30N 57°34' E 011°40'0 0.0
2018-Apr-12 22:00N 57°34' E 011°40'0 0.0
2018-Apr-12 21:30N 57°34' E 011°40'0 0.0
2018-Apr-12 21:00N 57°34' E 011°40'0 0.0
2018-Apr-12 20:30N 57°34' E 011°40'0 0.0
2018-Apr-12 20:00N 57°34' E 011°40'0 0.0
2018-Apr-12 19:30N 57°34' E 011°40'0 0.0
2018-Apr-12 19:00N 57°34' E 011°40'0 0.0
2018-Apr-12 18:30N 57°34' E 011°40'0 0.0
2018-Apr-12 18:00N 57°34' E 011°40'0 0.0
2018-Apr-12 17:30N 57°34' E 011°40'0 0.0
2018-Apr-12 17:00N 57°34' E 011°40'0 0.0
2018-Apr-12 16:30N 57°34' E 011°40'0 0.0
2018-Apr-12 16:00N 57°34' E 011°40'0 0.0
2018-Apr-12 15:30N 57°34' E 011°40'0 0.0
2018-Apr-12 15:00N 57°34' E 011°40'0 0.0
2018-Apr-12 14:30N 57°34' E 011°40'0 0.0
2018-Apr-12 14:00N 57°34' E 011°40'0 0.0
2018-Apr-12 13:30N 57°34' E 011°40'0 0.1
2018-Apr-12 13:00N 57°34' E 011°40'0 0.0
2018-Apr-12 12:30N 57°34' E 011°40'0 0.0
2018-Apr-12 12:00N 57°34' E 011°40'0 0.0
2018-Apr-12 11:30N 57°34' E 011°40'0 0.1
2018-Apr-12 11:00N 57°34' E 011°40'0 0.0
2018-Apr-12 10:30N 57°34' E 011°40'0 0.0
2018-Apr-12 10:00N 57°34' E 011°40'0 0.0
2018-Apr-12 09:30N 57°34' E 011°40'0 0.0
2018-Apr-12 09:00N 57°34' E 011°40'0 0.0
2018-Apr-12 08:30N 57°34' E 011°40'0 0.0
2018-Apr-12 08:00N 57°34' E 011°40'0 0.0
2018-Apr-12 07:30N 57°34' E 011°40'0 0.0
2018-Apr-12 07:00N 57°34' E 011°40'0 0.1
2018-Apr-12 06:30N 57°34' E 011°40'0 0.0
2018-Apr-12 06:00N 57°34' E 011°40'0 0.0
2018-Apr-12 05:30N 57°34' E 011°40'0 0.0
2018-Apr-12 05:00N 57°34' E 011°40'0 0.0
2018-Apr-12 04:30N 57°34' E 011°40'0 0.0
2018-Apr-12 04:00N 57°34' E 011°40'0 0.0
2018-Apr-12 03:30N 57°34' E 011°40'0 0.0
2018-Apr-12 03:00N 57°34' E 011°40'0 0.0
2018-Apr-12 02:30N 57°34' E 011°40'0 0.1
2018-Apr-12 02:00N 57°34' E 011°40'0 0.1
2018-Apr-12 01:30N 57°34' E 011°40'0 0.0
2018-Apr-12 01:00N 57°34' E 011°40'0 0.0
2018-Apr-12 00:30N 57°34' E 011°40'0 0.0
2018-Apr-12 00:00N 57°34' E 011°40'0 0.0
2018-Apr-11 23:30N 57°34' E 011°40'0 0.0
2018-Apr-11 23:00N 57°34' E 011°40'0 0.0
2018-Apr-11 22:30N 57°34' E 011°40'  

Dump ship's entire track history